Time;durP1;ratioP1;P1;durP2;ratioP2;P2;SDS_P1;SDS_P2;PMS_P1;PMS_P2;Temp;Humidity;BMP_temperature;BMP_pressure;BME280_temperature;BME280_humidity;BME280_pressure;Samples;Min_cycle;Max_cycle;Signal;HPM_P1;HPM_P2
2023/08/01 00:02:13;;;;;;;7.63;3.80;;;14.80;99.90;;;;;;5370350;23;656561;-72
2023/08/01 00:05:00;;;;;;;10.10;3.87;;;14.90;99.90;;;;;;5379183;23;657393;-72
2023/08/01 00:07:49;;;;;;;7.40;3.70;;;14.90;99.90;;;;;;5352979;23;657437;-72
2023/08/01 00:10:36;;;;;;;8.87;3.80;;;14.90;99.90;;;;;;5375802;23;656751;-72
2023/08/01 00:13:23;;;;;;;7.03;3.57;;;14.90;99.90;;;;;;5352626;23;656797;-72
2023/08/01 00:16:10;;;;;;;9.67;4.00;;;14.90;99.90;;;;;;5376788;23;657058;-72
2023/08/01 00:18:58;;;;;;;8.27;3.60;;;15.00;99.90;;;;;;5353393;23;657268;-72
2023/08/01 00:21:45;;;;;;;11.00;4.20;;;15.00;99.90;;;;;;5376969;23;656992;-72
2023/08/01 00:24:34;;;;;;;7.60;3.63;;;15.00;99.90;;;;;;5366723;23;657772;-72
2023/08/01 00:27:21;;;;;;;8.13;3.67;;;15.00;99.90;;;;;;5375784;23;657093;-72
2023/08/01 00:30:09;;;;;;;6.97;3.50;;;14.90;99.90;;;;;;5353667;23;657055;-72
2023/08/01 00:32:56;;;;;;;5.40;3.33;;;14.90;99.90;;;;;;5377328;23;656790;-72
2023/08/01 00:35:43;;;;;;;9.97;3.77;;;14.90;99.90;;;;;;5353494;23;656842;-72
2023/08/01 00:38:31;;;;;;;9.40;3.67;;;14.90;99.90;;;;;;5376202;23;657125;-72
2023/08/01 00:41:19;;;;;;;5.67;3.60;;;14.80;99.90;;;;;;5351334;23;657071;-72
2023/08/01 00:44:06;;;;;;;9.73;3.83;;;14.80;99.90;;;;;;5375903;23;657266;-72
2023/08/01 00:46:54;;;;;;;5.93;3.40;;;14.80;99.90;;;;;;5348344;23;656787;-72
2023/08/01 00:49:41;;;;;;;6.37;3.53;;;14.80;99.90;;;;;;5375130;23;657067;-72
2023/08/01 00:52:28;;;;;;;7.77;3.67;;;14.90;99.90;;;;;;5352917;23;657325;-72
2023/08/01 00:55:16;;;;;;;7.83;3.30;;;14.90;99.90;;;;;;5376205;23;657373;-72
2023/08/01 00:58:04;;;;;;;9.80;3.50;;;15.00;99.90;;;;;;5353143;23;656613;-72
2023/08/01 01:00:51;;;;;;;5.67;3.37;;;15.00;99.90;;;;;;5375583;23;656339;-72
2023/08/01 01:03:39;;;;;;;9.77;3.20;;;15.10;99.90;;;;;;5352484;23;656819;-72
2023/08/01 01:06:29;;;;;;;6.73;3.27;;;15.10;99.90;;;;;;5375446;23;656992;-72
2023/08/01 01:09:17;;;;;;;10.60;3.43;;;15.10;99.90;;;;;;5348691;23;656550;-72
2023/08/01 01:12:05;;;;;;;7.37;3.20;;;15.10;99.90;;;;;;5346787;23;659306;-73
2023/08/01 01:14:54;;;;;;;5.27;2.87;;;15.10;99.90;;;;;;5369880;23;656388;-72
2023/08/01 01:17:41;;;;;;;6.37;3.00;;;15.20;99.90;;;;;;5375541;23;657038;-72
2023/08/01 01:20:34;;;;;;;7.83;3.27;;;15.30;99.90;;;;;;5353129;23;656676;-72
2023/08/01 01:23:21;;;;;;;5.43;2.70;;;15.20;99.90;;;;;;5347942;23;656539;-72
2023/08/01 01:26:09;;;;;;;4.93;3.00;;;15.20;99.90;;;;;;5353457;23;656690;-72
2023/08/01 01:28:56;;;;;;;5.87;2.60;;;15.20;99.90;;;;;;5380551;23;657396;-72
2023/08/01 01:31:43;;;;;;;6.60;3.10;;;15.10;99.90;;;;;;5352918;23;657286;-72
2023/08/01 01:34:30;;;;;;;5.60;2.80;;;15.10;99.90;;;;;;5379505;23;657193;-72
2023/08/01 01:37:19;;;;;;;4.93;3.07;;;15.00;99.90;;;;;;5352508;23;656362;-72
2023/08/01 01:40:08;;;;;;;6.87;2.77;;;15.00;99.90;;;;;;5374200;23;656929;-72
2023/08/01 01:42:55;;;;;;;7.03;3.20;;;14.90;99.90;;;;;;5352723;23;656989;-71
2023/08/01 01:45:42;;;;;;;4.20;2.90;;;14.90;99.90;;;;;;5371134;23;656829;-72
2023/08/01 01:48:30;;;;;;;6.70;3.03;;;14.90;99.90;;;;;;5380157;23;657550;-72
2023/08/01 01:51:17;;;;;;;6.13;2.80;;;14.90;99.90;;;;;;5376224;23;656302;-72
2023/08/01 01:54:05;;;;;;;8.57;3.23;;;14.90;99.90;;;;;;5353029;23;656563;-72
2023/08/01 01:56:52;;;;;;;8.18;2.92;;;14.80;99.90;;;;;;5352710;23;656571;-72
2023/08/01 01:59:40;;;;;;;9.60;3.00;;;14.80;99.90;;;;;;5380544;23;657432;-72
2023/08/01 02:02:27;;;;;;;6.03;3.10;;;14.80;99.90;;;;;;5376553;23;656477;-72
2023/08/01 02:05:14;;;;;;;7.77;3.00;;;14.70;99.90;;;;;;5347976;23;657896;-72
2023/08/01 02:08:01;;;;;;;3.90;2.53;;;14.70;99.90;;;;;;5375533;23;656055;-72
2023/08/01 02:10:50;;;;;;;6.50;3.10;;;14.60;99.90;;;;;;5353210;23;656535;-72
2023/08/01 02:13:37;;;;;;;6.40;3.00;;;14.50;99.90;;;;;;5354242;23;657444;-72
2023/08/01 02:16:25;;;;;;;6.57;2.73;;;14.50;99.90;;;;;;5382960;23;657127;-72
2023/08/01 02:19:12;;;;;;;5.93;2.90;;;14.50;99.90;;;;;;5377858;23;656696;-72
2023/08/01 02:21:59;;;;;;;5.47;3.20;;;14.50;99.90;;;;;;5354039;23;656812;-72
2023/08/01 02:24:46;;;;;;;5.10;3.00;;;14.50;99.90;;;;;;5374473;23;657002;-72
2023/08/01 02:27:35;;;;;;;5.90;2.90;;;14.50;99.90;;;;;;5354566;23;656701;-72
2023/08/01 02:30:22;;;;;;;6.13;3.07;;;14.40;99.90;;;;;;5375087;23;656773;-72
2023/08/01 02:33:10;;;;;;;5.63;3.03;;;14.40;99.90;;;;;;5381950;23;656719;-72
2023/08/01 02:35:57;;;;;;;8.50;3.03;;;14.40;99.90;;;;;;5381900;23;655703;-72
2023/08/01 02:38:44;;;;;;;5.47;2.73;;;14.40;99.90;;;;;;5338676;23;657045;-72
2023/08/01 02:41:31;;;;;;;6.80;3.27;;;14.40;99.90;;;;;;5381987;23;655967;-72
2023/08/01 02:44:20;;;;;;;7.10;3.03;;;14.40;99.90;;;;;;5353994;23;656440;-72
2023/08/01 02:47:07;;;;;;;8.83;3.07;;;14.40;99.90;;;;;;5363990;23;656796;-72
2023/08/01 02:49:55;;;;;;;9.00;3.20;;;14.30;99.90;;;;;;5377130;23;658410;-72
2023/08/01 02:52:42;;;;;;;5.67;3.10;;;14.30;99.90;;;;;;5375602;23;656676;-72
2023/08/01 02:55:30;;;;;;;6.57;3.20;;;14.30;99.90;;;;;;5382019;23;657776;-72
2023/08/01 02:58:17;;;;;;;6.57;3.30;;;14.30;99.90;;;;;;5376527;23;656482;-72
2023/08/01 03:01:09;;;;;;;7.47;3.13;;;14.30;99.90;;;;;;5380794;23;657238;-72
2023/08/01 03:03:56;;;;;;;9.63;3.27;;;14.20;99.90;;;;;;5347255;23;656449;-72
2023/08/01 03:06:43;;;;;;;5.33;2.87;;;14.20;99.90;;;;;;5353870;23;656535;-72
2023/08/01 03:09:31;;;;;;;6.53;3.40;;;14.20;99.90;;;;;;5376642;23;657448;-72
2023/08/01 03:12:18;;;;;;;6.20;3.10;;;14.20;99.90;;;;;;5353264;23;656727;-72
2023/08/01 03:15:08;;;;;;;5.87;3.43;;;14.20;99.90;;;;;;5376458;23;657793;-72
2023/08/01 03:17:56;;;;;;;5.67;3.10;;;14.20;99.90;;;;;;5348415;23;656859;-72
2023/08/01 03:20:44;;;;;;;5.57;3.20;;;14.10;99.90;;;;;;5349528;23;656845;-71
2023/08/01 03:23:31;;;;;;;9.07;3.10;;;14.20;99.90;;;;;;5376691;23;656895;-72
2023/08/01 03:26:18;;;;;;;6.90;2.90;;;14.20;99.90;;;;;;5352902;23;657526;-72
2023/08/01 03:29:06;;;;;;;12.37;3.30;;;14.20;99.90;;;;;;5376932;23;657869;-71
2023/08/01 03:31:53;;;;;;;7.87;3.60;;;14.20;99.90;;;;;;5352487;23;657417;-72
2023/08/01 03:34:42;;;;;;;6.67;3.40;;;14.20;99.90;;;;;;5380178;23;657323;-72
2023/08/01 03:37:29;;;;;;;11.70;3.60;;;14.20;99.90;;;;;;5349072;23;657882;-71
2023/08/01 03:40:16;;;;;;;7.60;3.30;;;14.40;99.90;;;;;;5373404;23;657750;-71
2023/08/01 03:43:04;;;;;;;12.23;3.20;;;14.50;99.90;;;;;;5353766;23;656230;-71
2023/08/01 03:45:52;;;;;;;9.50;3.30;;;14.70;99.90;;;;;;5374072;23;657905;-71
2023/08/01 03:48:39;;;;;;;6.77;3.13;;;14.80;99.90;;;;;;5347897;23;657267;-71
2023/08/01 03:51:28;;;;;;;6.90;3.03;;;15.00;99.90;;;;;;5375807;23;656049;-71
2023/08/01 03:54:15;;;;;;;5.83;3.03;;;15.10;99.90;;;;;;5348450;23;656908;-71
2023/08/01 03:57:02;;;;;;;4.50;3.20;;;15.30;99.90;;;;;;5358072;23;656375;-72
2023/08/01 03:59:50;;;;;;;5.00;3.00;;;15.40;99.90;;;;;;5375120;23;657779;-71
2023/08/01 04:02:37;;;;;;;5.10;2.80;;;15.50;99.90;;;;;;5375531;23;656680;-72
2023/08/01 04:05:25;;;;;;;5.13;2.57;;;15.70;99.90;;;;;;5381234;23;658202;-72
2023/08/01 04:08:14;;;;;;;5.03;2.67;;;15.80;99.90;;;;;;5375818;23;657397;-72
2023/08/01 04:11:01;;;;;;;10.43;3.00;;;16.00;99.90;;;;;;5375759;23;658646;-72
2023/08/01 04:13:48;;;;;;;9.38;3.28;;;16.10;99.90;;;;;;5347618;23;657547;-72
2023/08/01 04:16:35;;;;;;;5.30;3.30;;;16.20;99.90;;;;;;5376444;23;658239;-71
2023/08/01 04:19:23;;;;;;;7.83;3.13;;;16.20;99.90;;;;;;5352898;23;656985;-72
2023/08/01 04:22:10;;;;;;;5.57;3.10;;;16.30;99.90;;;;;;5381425;23;657556;-71
2023/08/01 04:24:59;;;;;;;5.87;3.47;;;16.40;99.90;;;;;;5353698;23;656798;-72
2023/08/01 04:27:46;;;;;;;5.37;3.10;;;16.40;99.90;;;;;;5377253;23;656478;-71
2023/08/01 04:30:34;;;;;;;7.63;2.70;;;16.50;99.90;;;;;;5353405;23;656637;-72
2023/08/01 04:33:21;;;;;;;6.37;3.17;;;16.50;99.90;;;;;;5375532;23;657263;-72
2023/08/01 04:36:08;;;;;;;4.83;2.77;;;16.60;99.90;;;;;;5353433;23;656969;-71
2023/08/01 04:38:55;;;;;;;7.13;2.93;;;16.60;99.90;;;;;;5378677;23;657440;-72
2023/08/01 04:41:44;;;;;;;4.70;2.63;;;16.70;99.90;;;;;;5351959;23;657201;-71
2023/08/01 04:44:31;;;;;;;4.73;2.70;;;16.70;99.90;;;;;;5376113;23;656589;-72
2023/08/01 04:47:18;;;;;;;8.70;2.90;;;16.80;99.90;;;;;;5349789;23;656809;-72
2023/08/01 04:50:07;;;;;;;6.23;2.40;;;16.90;99.90;;;;;;5375731;23;657127;-71
2023/08/01 04:52:54;;;;;;;8.93;3.17;;;17.00;99.90;;;;;;5352481;23;656449;-72
2023/08/01 04:55:41;;;;;;;4.37;2.80;;;17.10;99.90;;;;;;5375945;23;657084;-71
2023/08/01 04:58:30;;;;;;;6.00;2.70;;;17.30;99.90;;;;;;5352180;23;657217;-71
2023/08/01 05:01:17;;;;;;;4.60;2.53;;;17.40;99.90;;;;;;5354661;23;656194;-71
2023/08/01 05:04:05;;;;;;;3.97;2.23;;;17.50;99.90;;;;;;5379911;23;657625;-71
2023/08/01 05:06:52;;;;;;;5.03;2.80;;;17.70;99.90;;;;;;5375342;23;656479;-71
2023/08/01 05:09:39;;;;;;;4.77;2.40;;;17.80;99.90;;;;;;5353047;23;656514;-71
2023/08/01 05:12:26;;;;;;;4.97;2.77;;;17.90;99.90;;;;;;5372480;23;656970;-71
2023/08/01 05:15:15;;;;;;;4.50;2.40;;;18.10;99.90;;;;;;5353405;23;656587;-71
2023/08/01 05:18:02;;;;;;;5.60;2.40;;;18.20;99.90;;;;;;5364456;23;656528;-72
2023/08/01 05:20:50;;;;;;;9.75;2.88;;;18.30;99.90;;;;;;5381029;23;657793;-71
2023/08/01 05:23:37;;;;;;;3.73;2.33;;;18.50;99.90;;;;;;5380549;23;656350;-71
2023/08/01 05:26:24;;;;;;;5.93;2.60;;;18.50;99.90;;;;;;5348647;23;658255;-71
2023/08/01 05:29:11;;;;;;;4.57;2.33;;;18.50;99.90;;;;;;5375123;23;656689;-71
2023/08/01 05:32:00;;;;;;;4.87;2.10;;;18.50;99.90;;;;;;5353235;23;656465;-71
2023/08/01 05:34:47;;;;;;;6.47;2.40;;;18.50;99.90;;;;;;5372951;23;656593;-71
2023/08/01 05:37:35;;;;;;;3.63;2.27;;;18.40;99.90;;;;;;5375704;23;658255;-71
2023/08/01 05:40:22;;;;;;;5.23;2.90;;;18.40;99.90;;;;;;5374848;23;656260;-71
2023/08/01 05:43:09;;;;;;;3.60;2.40;;;18.40;99.90;;;;;;5347613;23;658256;-71
2023/08/01 05:45:56;;;;;;;3.67;2.40;;;18.50;99.90;;;;;;5373697;23;657140;-71
2023/08/01 05:48:45;;;;;;;6.43;2.77;;;18.50;99.90;;;;;;5353923;23;656667;-71
2023/08/01 05:51:32;;;;;;;6.00;2.70;;;18.60;99.90;;;;;;5373657;23;656744;-72
2023/08/01 05:54:20;;;;;;;5.57;2.40;;;18.80;99.90;;;;;;5381919;23;657224;-71
2023/08/01 05:57:08;;;;;;;5.77;2.47;;;19.00;99.90;;;;;;5376709;23;656484;-71
2023/08/01 05:59:55;;;;;;;5.73;2.50;;;19.10;99.90;;;;;;5346531;23;657499;-71
2023/08/01 06:02:42;;;;;;;6.27;2.63;;;19.20;99.90;;;;;;5368245;23;656550;-71
2023/08/01 06:05:31;;;;;;;5.00;2.73;;;19.30;99.90;;;;;;5377695;23;657666;-71
2023/08/01 06:08:18;;;;;;;7.80;2.40;;;19.30;99.90;;;;;;5354299;23;656435;-71
2023/08/01 06:11:05;;;;;;;3.30;2.13;;;19.30;99.90;;;;;;5376248;23;658117;-71
2023/08/01 06:13:53;;;;;;;7.30;2.67;;;19.30;99.90;;;;;;5353972;23;656625;-71
2023/08/01 06:16:40;;;;;;;5.97;2.70;;;19.30;99.90;;;;;;5380463;23;657265;-71
2023/08/01 06:19:27;;;;;;;4.17;2.50;;;19.40;99.90;;;;;;5357754;23;657042;-71
2023/08/01 06:22:16;;;;;;;4.67;2.40;;;19.30;99.90;;;;;;5381719;23;656804;-71
2023/08/01 06:25:04;;;;;;;6.57;2.77;;;19.20;99.90;;;;;;5353077;23;656876;-71
2023/08/01 06:27:51;;;;;;;6.60;2.70;;;19.20;99.90;;;;;;5376302;23;656479;-71
2023/08/01 06:30:38;;;;;;;6.07;2.50;;;19.40;99.90;;;;;;5351887;23;656582;-71
2023/08/01 06:33:25;;;;;;;4.70;2.73;;;19.60;99.90;;;;;;5376024;23;656993;-71
2023/08/01 06:36:12;;;;;;;7.63;2.83;;;19.90;99.90;;;;;;5350015;23;656927;-70
2023/08/01 06:39:01;;;;;;;3.43;2.30;;;20.00;99.90;;;;;;5379962;23;656087;-70
2023/08/01 06:41:48;;;;;;;5.23;2.67;;;20.20;99.90;;;;;;5352055;23;657102;-70
2023/08/01 06:44:35;;;;;;;8.30;3.10;;;20.50;99.90;;;;;;5374427;23;658185;-69
2023/08/01 06:47:23;;;;;;;10.90;3.07;;;20.60;99.90;;;;;;5350941;23;656740;-69
2023/08/01 06:50:10;;;;;;;7.77;3.00;;;20.60;99.90;;;;;;5372559;23;658802;-70
2023/08/01 06:52:58;;;;;;;4.90;2.67;;;20.60;99.90;;;;;;5350983;23;656587;-70
2023/08/01 06:55:46;;;;;;;8.80;2.73;;;20.50;99.90;;;;;;5377936;23;656793;-70
2023/08/01 06:58:33;;;;;;;4.63;2.63;;;20.30;99.90;;;;;;5349934;23;657299;-70
2023/08/01 07:01:22;;;;;;;5.30;2.70;;;20.30;99.90;;;;;;5373245;23;657220;-70
2023/08/01 07:04:09;;;;;;;6.10;3.00;;;20.30;99.90;;;;;;5343822;23;657898;-70
2023/08/01 07:06:56;;;;;;;7.47;3.13;;;20.30;99.90;;;;;;5371918;23;656965;-70
2023/08/01 07:09:44;;;;;;;6.60;2.93;;;20.40;99.90;;;;;;5350734;23;656375;-70
2023/08/01 07:12:32;;;;;;;7.37;3.10;;;20.70;99.90;;;;;;5373554;23;656921;-70
2023/08/01 07:15:20;;;;;;;10.30;3.37;;;20.90;99.90;;;;;;5346289;23;657309;-70
2023/08/01 07:18:07;;;;;;;6.30;2.90;;;20.90;99.90;;;;;;5369875;23;658326;-70
2023/08/01 07:21:00;;;;;;;8.73;3.30;;;21.10;99.90;;;;;;5377709;23;657590;-70
2023/08/01 07:23:48;;;;;;;4.73;3.03;;;21.30;99.90;;;;;;5323284;23;657053;-70
2023/08/01 07:26:35;;;;;;;8.10;3.13;;;21.40;99.90;;;;;;5378896;23;657247;-70
2023/08/01 07:29:24;;;;;;;7.70;3.67;;;21.60;99.90;;;;;;5357282;23;656320;-70
2023/08/01 07:32:11;;;;;;;9.60;3.73;;;21.80;99.90;;;;;;5373103;23;657072;-70
2023/08/01 07:34:58;;;;;;;7.53;3.63;;;22.10;99.90;;;;;;5346844;23;656514;-70
2023/08/01 07:37:45;;;;;;;6.40;3.80;;;22.30;99.90;;;;;;5372616;23;657590;-71
2023/08/01 07:40:33;;;;;;;7.43;3.80;;;22.50;99.90;;;;;;5349880;23;656803;-71
2023/08/01 07:43:20;;;;;;;9.00;4.50;;;22.70;99.90;;;;;;5375136;23;658001;-71
2023/08/01 07:46:09;;;;;;;10.30;4.07;;;22.70;99.90;;;;;;5369303;23;656443;-71
2023/08/01 07:48:57;;;;;;;5.60;3.63;;;22.70;99.90;;;;;;5371548;23;657997;-71
2023/08/01 07:51:44;;;;;;;8.47;3.73;;;22.70;99.90;;;;;;5350789;23;656833;-71
2023/08/01 07:54:31;;;;;;;8.13;4.30;;;22.20;99.90;;;;;;5373525;23;657104;-71
2023/08/01 07:57:18;;;;;;;10.23;4.10;;;22.30;99.90;;;;;;5350070;23;656600;-71
2023/08/01 08:00:07;;;;;;;9.60;3.80;;;22.50;99.90;;;;;;5374953;23;657815;-71
2023/08/01 08:02:55;;;;;;;9.83;3.93;;;22.60;99.90;;;;;;5350219;23;657141;-71
2023/08/01 08:05:43;;;;;;;7.57;3.87;;;22.90;99.90;;;;;;5348616;23;657344;-72
2023/08/01 08:08:30;;;;;;;7.78;3.78;;;23.20;99.90;;;;;;5373634;23;657340;-71
2023/08/01 08:11:17;;;;;;;6.57;3.42;;;23.30;99.90;;;;;;5370052;23;657057;-71
2023/08/01 08:14:05;;;;;;;13.13;3.80;;;23.60;99.90;;;;;;5378639;23;657145;-72
2023/08/01 08:16:52;;;;;;;6.28;3.30;;;23.80;99.90;;;;;;5371289;23;657915;-70
2023/08/01 08:19:40;;;;;;;8.20;3.40;;;23.80;99.90;;;;;;5349617;23;656819;-72
2023/08/01 08:22:27;;;;;;;16.30;4.00;;;23.60;99.90;;;;;;5349712;23;656600;-71
2023/08/01 08:25:15;;;;;;;5.07;3.03;;;23.50;99.90;;;;;;5371217;23;659318;-71
2023/08/01 08:28:02;;;;;;;8.20;3.33;;;23.40;99.90;;;;;;5365329;23;656706;-71
2023/08/01 08:30:50;;;;;;;13.52;3.60;;;23.00;99.90;;;;;;5377149;23;657271;-71
2023/08/01 08:33:37;;;;;;;12.45;4.13;;;22.70;99.90;;;;;;5372051;23;658100;-71
2023/08/01 08:36:25;;;;;;;10.65;4.28;;;22.70;99.90;;;;;;5348792;23;657390;-71
2023/08/01 08:39:12;;;;;;;10.30;3.92;;;22.70;99.90;;;;;;5347740;23;657937;-71
2023/08/01 08:42:00;;;;;;;7.32;3.53;;;22.70;99.90;;;;;;5375627;23;657644;-71
2023/08/01 08:44:47;;;;;;;7.28;3.72;;;22.80;99.90;;;;;;5373015;23;656866;-69
2023/08/01 08:47:36;;;;;;;12.70;4.10;;;23.00;99.90;;;;;;5345627;23;657774;-71
2023/08/01 08:50:25;;;;;;;8.95;4.10;;;23.20;99.90;;;;;;5346187;23;658391;-71
2023/08/01 08:53:14;;;;;;;7.63;3.65;;;23.00;99.90;;;;;;5355472;23;656789;-71
2023/08/01 08:56:01;;;;;;;7.00;3.50;;;22.90;99.90;;;;;;5377154;23;657560;-70
2023/08/01 08:58:49;;;;;;;8.48;4.10;;;23.00;99.90;;;;;;5349375;23;656479;-71
2023/08/01 09:01:36;;;;;;;10.25;3.85;;;23.00;99.90;;;;;;5371184;23;657652;-71
2023/08/01 09:04:23;;;;;;;9.47;4.03;;;22.70;99.90;;;;;;5347140;23;658163;-71
2023/08/01 09:07:11;;;;;;;10.63;3.90;;;22.80;99.90;;;;;;5376213;23;656457;-70
2023/08/01 09:09:59;;;;;;;8.45;3.95;;;22.80;99.90;;;;;;5347270;23;657906;-70
2023/08/01 09:12:47;;;;;;;6.57;3.83;;;23.00;99.90;;;;;;5374910;23;656932;-70
2023/08/01 09:15:34;;;;;;;8.88;4.25;;;23.00;99.90;;;;;;5351611;23;657011;-70
2023/08/01 09:18:21;;;;;;;12.70;4.07;;;23.10;99.90;;;;;;5377851;23;656162;-70
2023/08/01 09:21:08;;;;;;;7.10;3.92;;;23.00;99.90;;;;;;5346937;23;657837;-70
2023/08/01 09:23:55;;;;;;;5.97;3.45;;;23.00;99.90;;;;;;5374404;23;657258;-71
2023/08/01 09:26:44;;;;;;;8.45;3.92;;;23.10;99.90;;;;;;5350956;23;656499;-71
2023/08/01 09:29:32;;;;;;;11.50;4.70;;;23.40;99.90;;;;;;5377406;23;656604;-71
2023/08/01 09:32:19;;;;;;;10.57;4.22;;;23.70;99.90;;;;;;5345036;23;657747;-70
2023/08/01 09:35:07;;;;;;;8.68;4.18;;;24.00;99.90;;;;;;5373125;23;657459;-70
2023/08/01 09:37:54;;;;;;;7.53;3.78;;;24.20;99.90;;;;;;5345051;23;658208;-71
2023/08/01 09:40:42;;;;;;;9.25;4.57;;;24.30;99.90;;;;;;5373761;23;656217;-69
2023/08/01 09:43:36;;;;;;;9.05;4.25;;;24.60;99.90;;;;;;5350974;23;656768;-70
2023/08/01 09:46:23;;;;;;;6.97;3.58;;;24.90;99.90;;;;;;5320780;23;656472;-71
2023/08/01 09:49:10;;;;;;;7.32;3.78;;;24.80;99.90;;;;;;5378838;23;656899;-70
2023/08/01 09:51:58;;;;;;;6.30;3.40;;;24.70;99.90;;;;;;5350581;23;656143;-71
2023/08/01 09:54:45;;;;;;;4.80;3.35;;;24.60;99.90;;;;;;5373678;23;657613;-70
2023/08/01 09:57:32;;;;;;;8.95;3.50;;;24.30;99.90;;;;;;5366863;23;656577;-70
2023/08/01 10:00:21;;;;;;;8.30;3.58;;;24.50;99.90;;;;;;5373499;23;658444;-71
2023/08/01 10:03:08;;;;;;;7.55;3.25;;;24.40;99.90;;;;;;5350820;23;656399;-71
2023/08/01 10:05:56;;;;;;;6.80;3.10;;;23.70;99.90;;;;;;5373139;23;658300;-70
2023/08/01 10:08:43;;;;;;;8.88;3.45;;;23.70;99.90;;;;;;5347888;23;656774;-70
2023/08/01 10:11:31;;;;;;;5.57;3.35;;;23.50;99.90;;;;;;5375849;23;657034;-70
2023/08/01 10:14:18;;;;;;;4.97;3.03;;;23.20;99.90;;;;;;5348376;23;656582;-71
2023/08/01 10:17:07;;;;;;;6.32;3.33;;;22.90;99.90;;;;;;5374898;23;657714;-71
2023/08/01 10:19:55;;;;;;;6.50;3.38;;;22.60;99.90;;;;;;5345794;23;657707;-71
2023/08/01 10:22:43;;;;;;;10.23;4.05;;;22.10;99.90;;;;;;5350887;23;657375;-71
2023/08/01 10:25:30;;;;;;;6.13;3.47;;;22.00;99.90;;;;;;5372181;23;659081;-71
2023/08/01 10:28:17;;;;;;;9.23;3.23;;;21.70;99.90;;;;;;5353278;23;657254;-71
2023/08/01 10:31:09;;;;;;;5.03;3.00;;;21.50;99.90;;;;;;5377381;23;657027;-71
2023/08/01 10:34:06;;;;;;;3.80;2.57;;;21.30;99.90;;;;;;5345147;23;657587;-70
2023/08/01 10:36:56;;;;;;;5.60;3.00;;;21.10;99.90;;;;;;5323665;23;657028;-70
2023/08/01 10:39:44;;;;;;;4.60;3.03;;;21.10;99.90;;;;;;5348078;23;656546;-70
2023/08/01 10:42:39;;;;;;;5.77;3.13;;;21.10;99.90;;;;;;5375096;23;656971;-70
2023/08/01 10:45:27;;;;;;;4.90;2.90;;;20.90;99.90;;;;;;5347929;23;657647;-71
2023/08/01 10:48:15;;;;;;;4.93;3.17;;;20.90;99.90;;;;;;5352708;23;657507;-71
2023/08/01 10:51:04;;;;;;;7.07;2.87;;;20.60;99.90;;;;;;5371394;23;656501;-71
2023/08/01 10:53:51;;;;;;;6.43;3.10;;;20.60;99.90;;;;;;5379501;23;656767;-71
2023/08/01 10:56:38;;;;;;;5.93;3.60;;;20.50;99.90;;;;;;5348888;23;657066;-71
2023/08/01 10:59:25;;;;;;;7.57;3.03;;;20.30;99.90;;;;;;5376559;23;658546;-70
2023/08/01 11:02:12;;;;;;;5.67;3.23;;;20.00;99.90;;;;;;5352704;23;656899;-71
2023/08/01 11:05:00;;;;;;;5.10;3.30;;;19.80;99.90;;;;;;5381128;23;657256;-70
2023/08/01 11:07:56;;;;;;;6.00;3.27;;;19.60;99.90;;;;;;5352559;23;656486;-73
2023/08/01 11:10:50;;;;;;;4.40;3.30;;;19.20;99.90;;;;;;5349897;23;657067;-71
2023/08/01 11:13:37;;;;;;;6.57;3.60;;;19.20;99.90;;;;;;5341350;23;656430;-71
2023/08/01 11:16:25;;;;;;;5.60;3.40;;;19.10;99.90;;;;;;5380576;23;657127;-71
2023/08/01 11:19:20;;;;;;;7.60;3.90;;;19.00;99.90;;;;;;5364326;23;657042;-70
2023/08/01 11:22:10;;;;;;;5.43;3.23;;;18.90;99.90;;;;;;5336539;23;656718;-72
2023/08/01 11:24:59;;;;;;;6.53;3.40;;;18.80;99.90;;;;;;5369461;23;656465;-72
2023/08/01 11:27:47;;;;;;;4.10;2.90;;;18.90;99.90;;;;;;5375394;23;656334;-71
2023/08/01 11:30:34;;;;;;;4.57;3.27;;;18.80;99.90;;;;;;5352772;23;656902;-72
2023/08/01 11:33:22;;;;;;;4.20;3.00;;;18.50;99.90;;;;;;5375289;23;657031;-72
2023/08/01 11:36:09;;;;;;;5.17;3.27;;;18.40;99.90;;;;;;5347632;23;657305;-72
2023/08/01 11:38:57;;;;;;;6.77;3.23;;;18.30;99.90;;;;;;5379956;23;656363;-72
2023/08/01 11:41:46;;;;;;;5.70;3.77;;;18.20;99.90;;;;;;5347749;23;658043;-72
2023/08/01 11:44:33;;;;;;;3.80;3.00;;;18.20;99.90;;;;;;5352944;23;656715;-72
2023/08/01 11:47:20;;;;;;;5.07;3.33;;;18.20;99.90;;;;;;5379960;23;656956;-72
2023/08/01 11:50:08;;;;;;;6.60;4.00;;;18.20;99.90;;;;;;5358088;23;657249;-71
2023/08/01 11:52:56;;;;;;;8.50;3.60;;;18.20;99.90;;;;;;5374703;23;658274;-72
2023/08/01 11:55:44;;;;;;;6.93;3.50;;;18.10;99.90;;;;;;5352341;23;656847;-72
2023/08/01 11:58:35;;;;;;;4.97;3.43;;;18.20;99.90;;;;;;5375457;23;657556;-71
2023/08/01 12:01:22;;;;;;;9.00;4.07;;;18.20;99.90;;;;;;5373747;23;656620;-71
2023/08/01 12:04:09;;;;;;;7.50;3.57;;;18.10;99.90;;;;;;5352960;23;657438;-71
2023/08/01 12:06:57;;;;;;;5.97;3.30;;;18.00;99.90;;;;;;5374940;23;656684;-71
2023/08/01 12:09:44;;;;;;;8.70;3.50;;;18.00;99.90;;;;;;5352470;23;656834;-69
2023/08/01 12:12:31;;;;;;;11.53;3.83;;;18.00;99.90;;;;;;5372525;23;656687;-70
2023/08/01 12:15:20;;;;;;;5.57;3.73;;;18.10;99.90;;;;;;5350992;23;657567;-70
2023/08/01 12:18:07;;;;;;;8.13;3.63;;;18.10;99.90;;;;;;5366949;23;656506;-71
2023/08/01 12:20:55;;;;;;;5.17;3.50;;;18.20;99.90;;;;;;5380216;23;656601;-71
2023/08/01 12:23:42;;;;;;;5.27;3.40;;;18.20;99.90;;;;;;5375061;23;656275;-70
2023/08/01 12:26:29;;;;;;;6.33;4.00;;;18.20;99.90;;;;;;5352385;23;656938;-70
2023/08/01 12:29:16;;;;;;;8.07;4.03;;;18.20;99.90;;;;;;5373540;23;657161;-71
2023/08/01 12:32:06;;;;;;;8.83;3.70;;;18.20;99.90;;;;;;5351469;23;656630;-71
2023/08/01 12:34:53;;;;;;;5.30;3.60;;;18.40;99.90;;;;;;5351673;23;656690;-70
2023/08/01 12:37:40;;;;;;;8.33;4.00;;;18.30;99.90;;;;;;5373978;23;657801;-70
2023/08/01 12:40:28;;;;;;;6.63;4.00;;;18.30;99.90;;;;;;5351189;23;657198;-72
2023/08/01 12:43:16;;;;;;;5.43;3.60;;;18.40;99.90;;;;;;5374372;23;657682;-71
2023/08/01 12:46:03;;;;;;;7.13;3.50;;;18.40;99.90;;;;;;5351393;23;656414;-72
2023/08/01 12:48:52;;;;;;;5.57;3.63;;;18.40;99.90;;;;;;5374367;23;657033;-71
2023/08/01 12:51:39;;;;;;;8.27;3.87;;;18.60;99.90;;;;;;5346063;23;658306;-71
2023/08/01 12:54:26;;;;;;;6.18;4.30;;;18.50;99.90;;;;;;5373054;23;656193;-71
2023/08/01 12:57:14;;;;;;;7.83;4.33;;;18.50;99.90;;;;;;5346740;23;656872;-71
2023/08/01 13:00:01;;;;;;;6.17;3.40;;;18.60;99.90;;;;;;5374998;23;656820;-71
2023/08/01 13:02:49;;;;;;;8.93;3.63;;;18.50;99.90;;;;;;5352554;23;657459;-72
2023/08/01 13:05:38;;;;;;;4.93;3.63;;;18.50;99.90;;;;;;5379737;23;656211;-72
2023/08/01 13:08:25;;;;;;;5.57;3.63;;;18.60;99.90;;;;;;5347074;23;657037;-71
2023/08/01 13:11:13;;;;;;;8.37;4.13;;;18.60;99.90;;;;;;5363887;23;656460;-72
2023/08/01 13:14:00;;;;;;;5.50;3.73;;;18.60;99.90;;;;;;5376423;23;657256;-71
2023/08/01 13:16:47;;;;;;;6.43;3.77;;;18.50;99.90;;;;;;5351273;23;656887;-71
2023/08/01 13:19:34;;;;;;;7.50;4.50;;;18.60;99.90;;;;;;5374430;23;657547;-71
2023/08/01 13:22:23;;;;;;;5.63;3.67;;;18.70;99.90;;;;;;5379900;23;656647;-71
2023/08/01 13:25:11;;;;;;;5.93;3.53;;;18.70;99.90;;;;;;5347165;23;657683;-71
2023/08/01 13:27:58;;;;;;;5.27;3.33;;;18.80;99.90;;;;;;5351968;23;656574;-72
2023/08/01 13:30:45;;;;;;;5.13;3.33;;;18.80;99.90;;;;;;5374370;23;657869;-71
2023/08/01 13:33:32;;;;;;;5.40;3.43;;;18.70;99.90;;;;;;5365206;23;656349;-71
2023/08/01 13:36:20;;;;;;;4.60;3.40;;;18.70;99.90;;;;;;5379641;23;657646;-71
2023/08/01 13:39:08;;;;;;;8.27;3.70;;;18.50;99.90;;;;;;5374666;23;656407;-71
2023/08/01 13:41:55;;;;;;;5.10;3.40;;;18.50;99.90;;;;;;5346821;23;657913;-71
2023/08/01 13:44:43;;;;;;;4.70;3.10;;;18.60;99.90;;;;;;5351840;23;657188;-72
2023/08/01 13:47:30;;;;;;;4.90;3.47;;;18.60;99.90;;;;;;5374092;23;657741;-71
2023/08/01 13:50:17;;;;;;;5.83;3.50;;;18.70;99.90;;;;;;5367033;23;657113;-71
2023/08/01 13:53:07;;;;;;;4.93;3.40;;;18.60;99.90;;;;;;5374268;23;657387;-70
2023/08/01 13:55:55;;;;;;;3.33;2.70;;;18.60;99.90;;;;;;5351397;23;656990;-70
2023/08/01 13:58:42;;;;;;;7.30;3.10;;;18.60;99.90;;;;;;5351503;23;656391;-71
2023/08/01 14:01:30;;;;;;;4.60;3.03;;;18.70;99.90;;;;;;5379664;23;656967;-71
2023/08/01 14:04:17;;;;;;;7.17;3.40;;;18.60;99.90;;;;;;5370639;23;656662;-71
2023/08/01 14:07:05;;;;;;;5.40;3.57;;;18.70;99.90;;;;;;5380337;23;656987;-71
2023/08/01 14:09:52;;;;;;;4.57;3.00;;;18.70;99.90;;;;;;5367242;23;657079;-71
2023/08/01 14:12:41;;;;;;;4.37;2.90;;;18.70;99.90;;;;;;5380837;23;657196;-71
2023/08/01 14:15:28;;;;;;;5.23;3.17;;;18.70;99.90;;;;;;5351735;23;656582;-71
2023/08/01 14:18:15;;;;;;;4.83;2.80;;;18.60;99.90;;;;;;5377493;23;657022;-71
2023/08/01 14:21:02;;;;;;;3.77;2.80;;;18.60;99.90;;;;;;5353129;23;656503;-72